createdAt,value
2022-10-11T00:01:44.243Z,2.97
2022-10-11T00:04:13.892Z,3.00
2022-10-11T00:06:44.916Z,3.35
2022-10-11T00:09:13.639Z,2.97
2022-10-11T00:11:42.080Z,2.65
2022-10-11T00:14:09.985Z,2.90
2022-10-11T00:16:41.248Z,3.17
2022-10-11T00:19:10.456Z,3.00
2022-10-11T00:21:38.434Z,2.72
2022-10-11T00:24:11.667Z,3.50
2022-10-11T00:26:44.391Z,2.97
2022-10-11T00:29:16.040Z,2.60
2022-10-11T00:31:44.813Z,2.90
2022-10-11T00:34:14.161Z,2.90
2022-10-11T00:36:42.989Z,2.90
2022-10-11T00:39:12.295Z,2.70
2022-10-11T00:41:41.857Z,2.88
2022-10-11T00:44:24.782Z,2.90
2022-10-11T00:46:58.540Z,2.70
2022-10-11T00:49:43.597Z,2.85
2022-10-11T00:52:38.077Z,2.80
2022-10-11T00:55:14.931Z,3.00
2022-10-11T00:57:46.989Z,2.80
2022-10-11T01:00:16.333Z,3.08
2022-10-11T01:02:45.625Z,3.00
2022-10-11T01:05:29.260Z,2.83
2022-10-11T01:08:02.894Z,2.80
2022-10-11T01:10:30.884Z,3.38
2022-10-11T01:13:38.495Z,3.10
2022-10-11T01:16:36.355Z,3.28
2022-10-11T01:19:29.867Z,3.00
2022-10-11T01:22:11.293Z,3.10
2022-10-11T01:24:53.776Z,3.00
2022-10-11T01:27:47.317Z,2.80
2022-10-11T01:30:22.413Z,2.70
2022-10-11T01:33:14.039Z,2.73
2022-10-11T01:35:45.949Z,2.92
2022-10-11T01:38:47.370Z,3.22
2022-10-11T01:41:46.500Z,2.85
2022-10-11T01:44:15.192Z,3.20
2022-10-11T01:46:43.674Z,2.87
2022-10-11T01:49:11.636Z,2.90
2022-10-11T01:51:53.579Z,2.90
2022-10-11T01:54:56.671Z,3.15
2022-10-11T01:57:47.109Z,2.80
2022-10-11T02:00:23.823Z,3.10
2022-10-11T02:03:52.936Z,3.30
2022-10-11T02:06:46.908Z,2.78
2022-10-11T02:09:38.025Z,3.30
2022-10-11T02:12:13.196Z,3.10
2022-10-11T02:14:46.992Z,3.10
2022-10-11T02:17:22.185Z,3.10
2022-10-11T02:19:53.881Z,3.00
2022-10-11T02:22:45.517Z,3.20
2022-10-11T02:25:40.334Z,2.85
2022-10-11T02:28:24.797Z,3.20
2022-10-11T02:30:59.452Z,2.85
2022-10-11T02:34:02.448Z,3.00
2022-10-11T02:37:10.737Z,3.10
2022-10-11T02:40:36.605Z,3.10
2022-10-11T02:43:42.862Z,3.30
2022-10-11T02:46:12.080Z,2.75
2022-10-11T02:48:40.164Z,2.97
2022-10-11T02:51:13.844Z,2.80
2022-10-11T02:53:41.802Z,2.97
2022-10-11T02:56:09.461Z,2.70
2022-10-11T02:58:37.654Z,2.92
2022-10-11T03:01:06.831Z,3.08
2022-10-11T03:03:34.870Z,3.47
2022-10-11T03:06:04.856Z,2.83
2022-10-11T03:08:33.472Z,2.90
2022-10-11T03:11:01.186Z,2.72
2022-10-11T03:13:29.228Z,2.97
2022-10-11T03:16:03.389Z,2.92
2022-10-11T03:18:36.476Z,2.50
2022-10-11T03:21:04.648Z,3.03
2022-10-11T03:23:32.766Z,2.78
2022-10-11T03:26:00.647Z,2.80
2022-10-11T03:28:28.861Z,2.97
2022-10-11T03:30:56.749Z,3.00
2022-10-11T03:33:25.035Z,3.00
2022-10-11T03:35:54.042Z,3.20
2022-10-11T03:38:23.372Z,2.70
2022-10-11T03:40:51.580Z,3.15
2022-10-11T03:43:19.489Z,2.70
2022-10-11T03:45:47.459Z,2.83
2022-10-11T03:48:15.691Z,3.20
2022-10-11T03:50:44.424Z,2.90
2022-10-11T03:53:12.277Z,3.40
2022-10-11T03:55:41.356Z,3.20
2022-10-11T03:58:09.982Z,3.17
2022-10-11T04:00:38.225Z,2.80
2022-10-11T04:03:06.150Z,2.90
2022-10-11T04:05:34.507Z,2.92
2022-10-11T04:08:02.503Z,3.25
2022-10-11T04:10:32.456Z,2.77
2022-10-11T04:13:00.213Z,3.00
2022-10-11T04:15:28.337Z,3.08
2022-10-11T04:17:56.796Z,2.80
2022-10-11T04:20:25.175Z,2.80
2022-10-11T04:22:53.208Z,2.97
2022-10-11T04:25:21.299Z,2.80
2022-10-11T04:27:49.397Z,2.97
2022-10-11T04:30:18.513Z,2.78
2022-10-11T04:32:46.651Z,2.70
2022-10-11T04:35:15.234Z,2.90
2022-10-11T04:37:43.075Z,3.05
2022-10-11T04:40:11.765Z,2.80
2022-10-11T04:42:39.611Z,2.97
2022-10-11T04:45:08.215Z,3.20
2022-10-11T04:47:36.172Z,3.00
2022-10-11T04:50:05.104Z,3.00
2022-10-11T04:52:32.898Z,2.95
2022-10-11T04:55:00.696Z,3.15
2022-10-11T04:57:28.593Z,3.40
2022-10-11T04:59:57.471Z,3.43
2022-10-11T05:02:25.475Z,3.08
2022-10-11T05:04:53.315Z,3.20
2022-10-11T05:07:21.227Z,3.20
2022-10-11T05:09:56.001Z,2.83
2022-10-11T05:12:23.742Z,3.30
2022-10-11T05:14:51.704Z,3.50
2022-10-11T05:17:19.657Z,4.18
2022-10-11T05:19:47.445Z,4.57
2022-10-11T05:22:15.526Z,3.45
2022-10-11T05:24:43.295Z,3.30
2022-10-11T05:27:11.298Z,3.20
2022-10-11T05:29:39.197Z,3.08
2022-10-11T05:32:07.143Z,3.10
2022-10-11T05:34:35.130Z,3.20
2022-10-11T05:37:03.182Z,3.10
2022-10-11T05:39:31.151Z,3.15
2022-10-11T05:41:59.432Z,3.15
2022-10-11T05:44:27.322Z,3.50
2022-10-11T05:46:55.333Z,3.22
2022-10-11T05:49:23.099Z,2.97
2022-10-11T05:51:50.892Z,2.50
2022-10-11T05:54:18.747Z,2.40
2022-10-11T05:56:46.715Z,2.50
2022-10-11T05:59:14.963Z,2.60
2022-10-11T06:01:43.235Z,2.83
2022-10-11T06:04:12.085Z,2.42
2022-10-11T06:06:39.857Z,2.60
2022-10-11T06:09:07.655Z,2.80
2022-10-11T06:11:35.554Z,3.00
2022-10-11T06:14:03.279Z,2.53
2022-10-11T06:16:31.586Z,2.97
2022-10-11T06:18:59.417Z,2.80
2022-10-11T06:21:27.498Z,3.00
2022-10-11T06:24:01.527Z,3.13
2022-10-11T06:26:30.063Z,3.30
2022-10-11T06:28:59.070Z,4.68
2022-10-11T06:31:27.522Z,2.70
2022-10-11T06:33:55.382Z,3.08
2022-10-11T06:36:23.420Z,3.20
2022-10-11T06:38:55.351Z,2.70
2022-10-11T06:41:26.623Z,3.22
2022-10-11T06:43:54.643Z,2.67
2022-10-11T06:46:24.587Z,2.78
2022-10-11T06:48:52.945Z,3.10
2022-10-11T06:51:22.311Z,3.20
2022-10-11T06:53:57.062Z,3.13
2022-10-11T06:56:27.026Z,3.08
2022-10-11T06:58:57.860Z,3.03
2022-10-11T07:01:27.245Z,2.83
2022-10-11T07:03:56.857Z,2.90
2022-10-11T07:06:27.561Z,3.00
2022-10-11T07:08:56.116Z,3.00
2022-10-11T07:11:28.590Z,3.10
2022-10-11T07:13:59.494Z,2.88
2022-10-11T07:16:28.612Z,3.20
2022-10-11T07:19:00.752Z,3.47
2022-10-11T07:21:30.605Z,3.05
2022-10-11T07:23:58.532Z,3.20
2022-10-11T07:26:26.863Z,3.08
2022-10-11T07:28:54.921Z,2.90
2022-10-11T07:31:25.000Z,3.15
2022-10-11T07:33:53.129Z,2.95
2022-10-11T07:36:21.196Z,3.25
2022-10-11T07:38:50.919Z,3.10
2022-10-11T07:41:19.558Z,3.20
2022-10-11T07:43:49.915Z,2.90
2022-10-11T07:46:20.844Z,2.83
2022-10-11T07:48:50.533Z,2.60
2022-10-11T07:51:20.705Z,3.10
2022-10-11T07:53:50.575Z,3.13
2022-10-11T07:56:21.029Z,3.00
2022-10-11T07:58:53.903Z,3.05
2022-10-11T08:01:22.550Z,3.00
2022-10-11T08:03:51.142Z,4.07
2022-10-11T08:06:23.486Z,3.37
2022-10-11T08:08:51.288Z,3.58
2022-10-11T08:11:27.558Z,4.40
2022-10-11T08:13:56.323Z,4.05
2022-10-11T08:16:24.228Z,3.53
2022-10-11T08:18:52.202Z,3.30
2022-10-11T08:21:19.893Z,3.78
2022-10-11T08:23:47.679Z,3.20
2022-10-11T08:26:16.003Z,3.10
2022-10-11T08:28:44.030Z,3.22
2022-10-11T08:31:16.577Z,2.97
2022-10-11T08:33:44.479Z,3.40
2022-10-11T08:36:13.182Z,3.50
2022-10-11T08:38:41.819Z,3.78
2022-10-11T08:41:39.637Z,3.80
2022-10-11T08:45:10.637Z,3.03
2022-10-11T08:47:34.561Z,3.60
2022-10-11T08:50:04.603Z,3.40
2022-10-11T08:52:49.398Z,3.20
2022-10-11T08:55:25.276Z,3.13
2022-10-11T08:57:56.421Z,3.57
2022-10-11T09:00:27.252Z,3.50
2022-10-11T09:03:11.498Z,3.60
2022-10-11T09:05:57.697Z,3.63
2022-10-11T09:09:08.370Z,3.42
2022-10-11T09:11:57.737Z,3.50
2022-10-11T09:14:54.250Z,3.92
2022-10-11T09:17:25.482Z,4.00
2022-10-11T09:20:19.777Z,4.30
2022-10-11T09:23:09.195Z,4.53
2022-10-11T09:25:58.962Z,4.60
2022-10-11T09:29:17.003Z,5.00
2022-10-11T09:31:53.995Z,5.25
2022-10-11T09:34:32.602Z,4.60
2022-10-11T09:37:24.990Z,5.15
2022-10-11T09:40:03.672Z,4.77
2022-10-11T09:42:31.505Z,3.90
2022-10-11T09:45:02.299Z,4.85
2022-10-11T09:47:33.568Z,4.32
2022-10-11T09:50:30.906Z,4.10
2022-10-11T09:53:02.362Z,4.07
2022-10-11T09:55:53.225Z,4.15
2022-10-11T09:58:27.391Z,4.10
2022-10-11T10:01:08.269Z,4.10
2022-10-11T10:03:42.053Z,3.80
2022-10-11T10:06:24.484Z,4.00
2022-10-11T10:08:52.810Z,4.13
2022-10-11T10:11:21.197Z,4.38
2022-10-11T10:13:57.132Z,3.63
2022-10-11T10:16:33.981Z,3.80
2022-10-11T10:19:25.532Z,4.40
2022-10-11T10:21:56.184Z,3.75
2022-10-11T10:24:33.355Z,4.70
2022-10-11T10:27:30.746Z,4.15
2022-10-11T10:30:17.055Z,4.25
2022-10-11T10:33:04.191Z,4.43
2022-10-11T10:35:39.886Z,3.90
2022-10-11T10:38:27.921Z,3.70
2022-10-11T10:41:04.277Z,3.88
2022-10-11T10:43:38.771Z,3.75
2022-10-11T10:46:36.364Z,4.40
2022-10-11T10:52:37.521Z,3.90
2022-10-11T10:55:28.588Z,3.90
2022-10-11T10:58:24.369Z,3.38
2022-10-11T11:01:13.950Z,3.63
2022-10-11T11:03:56.957Z,3.83
2022-10-11T11:06:36.498Z,3.20
2022-10-11T11:09:10.785Z,3.35
2022-10-11T11:12:17.343Z,3.25
2022-10-11T11:14:58.820Z,3.00
2022-10-11T11:17:30.204Z,2.80
2022-10-11T11:20:30.160Z,2.97
2022-10-11T11:23:12.946Z,2.67
2022-10-11T11:26:04.610Z,3.13
2022-10-11T11:29:03.902Z,3.07
2022-10-11T11:31:55.306Z,3.30
2022-10-11T11:34:32.030Z,2.90
2022-10-11T11:37:11.582Z,3.30
2022-10-11T11:39:55.883Z,3.10
2022-10-11T11:42:45.442Z,2.87
2022-10-11T11:45:21.603Z,3.50
2022-10-11T11:48:20.274Z,2.90
2022-10-11T11:51:30.516Z,2.70
2022-10-11T11:54:20.845Z,2.50
2022-10-11T11:57:14.728Z,2.60
2022-10-11T11:59:58.012Z,2.55
2022-10-11T12:03:00.638Z,2.40
2022-10-11T12:05:34.019Z,2.10
2022-10-11T12:08:08.623Z,2.10
2022-10-11T12:11:00.347Z,1.97
2022-10-11T12:13:35.099Z,1.95
2022-10-11T12:16:14.331Z,2.30
2022-10-11T12:18:56.380Z,2.00
2022-10-11T12:21:38.959Z,2.30
2022-10-11T12:24:22.909Z,2.20
2022-10-11T12:26:55.906Z,2.28
2022-10-11T12:29:43.023Z,2.25
2022-10-11T12:32:12.212Z,2.05
2022-10-11T12:34:43.133Z,2.20
2022-10-11T12:37:19.958Z,2.10
2022-10-11T12:39:56.399Z,2.10
2022-10-11T12:42:29.639Z,2.15
2022-10-11T12:45:14.908Z,2.13
2022-10-11T12:48:01.488Z,1.92
2022-10-11T12:51:02.909Z,1.90
2022-10-11T12:54:28.988Z,2.15
2022-10-11T12:57:12.140Z,2.47
2022-10-11T12:59:45.784Z,1.88
2022-10-11T13:02:44.699Z,1.92
2022-10-11T13:05:26.696Z,1.93
2022-10-11T13:07:57.727Z,2.20
2022-10-11T13:10:36.540Z,2.10
2022-10-11T13:13:10.496Z,2.30
2022-10-11T13:15:39.072Z,2.13
2022-10-11T13:18:06.768Z,1.83
2022-10-11T13:20:38.770Z,2.20
2022-10-11T13:23:30.556Z,2.03
2022-10-11T13:26:01.515Z,2.28
2022-10-11T13:28:34.161Z,2.00
2022-10-11T13:31:07.354Z,2.13
2022-10-11T13:33:42.688Z,2.17
2022-10-11T13:36:17.932Z,2.15
2022-10-11T13:39:05.990Z,2.17
2022-10-11T13:41:35.472Z,2.33
2022-10-11T13:44:04.575Z,2.50
2022-10-11T13:46:33.857Z,2.05
2022-10-11T13:49:24.288Z,2.17
2022-10-11T13:52:01.945Z,2.40
2022-10-11T13:54:59.228Z,2.30
2022-10-11T13:57:46.520Z,2.10
2022-10-11T14:00:20.277Z,2.35
2022-10-11T14:03:13.797Z,2.28
2022-10-11T14:05:54.342Z,2.40
2022-10-11T14:08:33.668Z,2.60
2022-10-11T14:11:06.286Z,2.20
2022-10-11T14:13:42.749Z,2.13
2022-10-11T14:16:21.168Z,2.53
2022-10-11T14:18:52.461Z,2.55
2022-10-11T14:21:20.471Z,2.83
2022-10-11T14:23:55.572Z,2.80
2022-10-11T14:26:24.996Z,2.60
2022-10-11T14:28:58.968Z,2.70
2022-10-11T14:31:30.751Z,3.10
2022-10-11T14:33:59.169Z,3.58
2022-10-11T14:36:26.966Z,3.20
2022-10-11T14:38:55.029Z,3.65
2022-10-11T14:41:22.864Z,3.20
2022-10-11T14:43:50.749Z,3.08
2022-10-11T14:46:28.012Z,3.88
2022-10-11T14:48:56.732Z,3.57
2022-10-11T14:51:32.654Z,3.60
2022-10-11T14:54:00.511Z,3.60
2022-10-11T14:56:32.507Z,3.90
2022-10-11T14:59:00.752Z,4.20
2022-10-11T15:02:02.069Z,3.80
2022-10-11T15:04:30.810Z,3.95
2022-10-11T15:06:59.229Z,3.80
2022-10-11T15:09:31.013Z,3.40
2022-10-11T15:12:00.515Z,3.85
2022-10-11T15:14:28.840Z,3.40
2022-10-11T15:16:59.015Z,3.45
2022-10-11T15:19:29.624Z,3.20
2022-10-11T15:21:59.235Z,3.78
2022-10-11T15:24:28.660Z,4.00
2022-10-11T15:27:13.010Z,4.00
2022-10-11T15:29:41.726Z,4.20
2022-10-11T15:32:09.739Z,4.30
2022-10-11T15:34:39.921Z,4.28
2022-10-11T15:37:10.326Z,4.95
2022-10-11T15:39:38.408Z,4.37
2022-10-11T15:42:07.920Z,4.55
2022-10-11T15:44:37.614Z,4.80
2022-10-11T15:47:07.013Z,4.43
2022-10-11T15:49:37.095Z,4.97
2022-10-11T15:52:08.017Z,4.27
2022-10-11T15:54:36.769Z,3.42
2022-10-11T15:57:04.650Z,4.07
2022-10-11T15:59:32.521Z,3.50
2022-10-11T16:02:00.648Z,3.20
2022-10-11T16:04:29.181Z,3.40
2022-10-11T16:06:58.056Z,3.05
2022-10-11T16:09:28.028Z,3.50
2022-10-11T16:11:57.581Z,3.30
2022-10-11T16:14:26.742Z,3.13
2022-10-11T16:16:55.323Z,3.70
2022-10-11T16:19:23.451Z,3.72
2022-10-11T16:21:54.721Z,4.38
2022-10-11T16:24:23.607Z,4.20
2022-10-11T16:26:52.321Z,4.93
2022-10-11T16:29:24.881Z,4.97
2022-10-11T16:31:54.797Z,4.63
2022-10-11T16:34:24.186Z,4.88
2022-10-11T16:36:52.341Z,4.50
2022-10-11T16:39:21.715Z,4.30
2022-10-11T16:41:51.275Z,4.40
2022-10-11T16:47:14.077Z,5.03
2022-10-11T16:49:43.553Z,4.50
2022-10-11T16:52:14.645Z,3.97
2022-10-11T16:54:48.884Z,4.77
2022-10-11T16:57:25.274Z,4.03
2022-10-11T16:59:54.221Z,4.32
2022-10-11T17:02:32.364Z,4.30
2022-10-11T17:05:03.850Z,4.40
2022-10-11T17:07:32.752Z,4.30
2022-10-11T17:10:04.817Z,4.40
2022-10-11T17:12:36.235Z,4.30
2022-10-11T17:15:06.328Z,4.30
2022-10-11T17:17:35.355Z,4.55
2022-10-11T17:20:05.297Z,4.70
2022-10-11T17:22:34.128Z,4.40
2022-10-11T17:25:06.201Z,4.20
2022-10-11T17:27:34.108Z,4.90
2022-10-11T17:30:01.765Z,4.90
2022-10-11T17:32:29.797Z,4.70
2022-10-11T17:34:59.535Z,4.47
2022-10-11T17:37:28.833Z,5.03
2022-10-11T17:40:03.751Z,5.20
2022-10-11T17:42:44.773Z,4.78
2022-10-11T17:45:17.337Z,4.77
2022-10-11T17:47:50.121Z,5.18
2022-10-11T17:50:22.278Z,5.03
2022-10-11T17:52:54.624Z,5.10
2022-10-11T17:55:23.629Z,4.95
2022-10-11T17:57:53.071Z,5.40
2022-10-11T18:00:21.620Z,5.10
2022-10-11T18:02:50.426Z,5.50
2022-10-11T18:05:18.401Z,5.13
2022-10-11T18:07:46.243Z,4.50
2022-10-11T18:10:14.328Z,4.53
2022-10-11T18:12:42.047Z,4.47
2022-10-11T18:15:10.303Z,4.55
2022-10-11T18:17:38.003Z,5.00
2022-10-11T18:20:06.448Z,4.85
2022-10-11T18:22:34.986Z,4.47
2022-10-11T18:25:03.613Z,4.35
2022-10-11T18:27:31.464Z,5.15
2022-10-11T18:29:59.655Z,4.80
2022-10-11T18:32:43.501Z,5.53
2022-10-11T18:35:12.370Z,5.40
2022-10-11T18:37:43.442Z,5.40
2022-10-11T18:40:14.587Z,5.68
2022-10-11T18:42:46.246Z,6.25
2022-10-11T18:45:14.188Z,5.90
2022-10-11T18:47:41.904Z,5.53
2022-10-11T18:50:10.262Z,5.68
2022-10-11T18:52:42.454Z,4.97
2022-10-11T18:55:13.116Z,4.30
2022-10-11T18:57:42.485Z,4.38
2022-10-11T19:00:38.950Z,4.43
2022-10-11T19:03:02.653Z,4.43
2022-10-11T19:05:31.079Z,4.80
2022-10-11T19:07:59.168Z,4.57
2022-10-11T19:10:26.913Z,4.78
2022-10-11T19:12:54.848Z,4.53
2022-10-11T19:15:27.864Z,4.40
2022-10-11T19:17:56.821Z,4.65
2022-10-11T19:20:24.623Z,5.15
2022-10-11T19:22:55.182Z,4.90
2022-10-11T19:25:23.269Z,4.87
2022-10-11T19:30:49.844Z,4.57
2022-10-11T19:33:18.067Z,5.30
2022-10-11T19:35:58.555Z,4.65
2022-10-11T19:38:27.016Z,4.87
2022-10-11T19:40:58.248Z,4.22
2022-10-11T19:43:26.429Z,4.30
2022-10-11T19:46:02.632Z,5.07
2022-10-11T19:48:31.241Z,5.05
2022-10-11T19:51:12.576Z,4.90
2022-10-11T19:53:41.170Z,5.03
2022-10-11T19:56:13.064Z,5.38
2022-10-11T19:58:44.676Z,4.90
2022-10-11T20:01:19.326Z,5.57
2022-10-11T20:03:53.412Z,5.10
2022-10-11T20:06:25.325Z,5.63
2022-10-11T20:09:16.579Z,6.38
2022-10-11T20:11:42.417Z,6.18
2022-10-11T20:14:10.508Z,5.45
2022-10-11T20:16:38.724Z,5.60
2022-10-11T20:19:06.936Z,5.22
2022-10-11T20:21:35.500Z,5.20
2022-10-11T20:24:04.586Z,5.63
2022-10-11T20:26:33.937Z,5.72
2022-10-11T20:29:02.036Z,5.60
2022-10-11T20:31:39.292Z,5.43
2022-10-11T20:34:07.751Z,5.15
2022-10-11T20:36:36.524Z,5.40
2022-10-11T20:39:06.338Z,6.05
2022-10-11T20:41:40.281Z,5.27
2022-10-11T20:44:10.212Z,5.70
2022-10-11T20:46:39.734Z,5.40
2022-10-11T20:49:11.910Z,5.70
2022-10-11T20:51:42.022Z,5.22
2022-10-11T20:54:11.090Z,5.73
2022-10-11T20:56:40.271Z,5.97
2022-10-11T20:59:08.728Z,5.70
2022-10-11T21:01:39.993Z,5.70
2022-10-11T21:04:11.325Z,6.28
2022-10-11T21:06:39.372Z,6.50
2022-10-11T21:09:08.529Z,6.72
2022-10-11T21:11:39.795Z,6.15
2022-10-11T21:14:07.992Z,6.55
2022-10-11T21:16:36.208Z,6.20
2022-10-11T21:19:04.670Z,6.57
2022-10-11T21:21:33.140Z,6.60
2022-10-11T21:24:03.067Z,5.95
2022-10-11T21:26:31.883Z,6.20
2022-10-11T21:29:00.133Z,6.15
2022-10-11T21:31:34.035Z,6.60
2022-10-11T21:34:05.709Z,5.90
2022-10-11T21:36:34.275Z,6.00
2022-10-11T21:39:02.148Z,6.13
2022-10-11T21:41:34.565Z,6.07
2022-10-11T21:44:02.785Z,6.63
2022-10-11T21:46:54.467Z,6.10
2022-10-11T21:49:21.339Z,6.38
2022-10-11T21:51:49.600Z,6.25
2022-10-11T21:54:18.415Z,6.50
2022-10-11T21:56:46.662Z,6.00
2022-10-11T21:59:14.731Z,6.18
2022-10-11T22:01:44.142Z,6.15
2022-10-11T22:04:13.086Z,6.05
2022-10-11T22:06:41.273Z,6.20
2022-10-11T22:09:10.007Z,5.83
2022-10-11T22:11:38.490Z,5.68
2022-10-11T22:14:07.738Z,5.35
2022-10-11T22:16:36.071Z,5.70
2022-10-11T22:19:04.927Z,5.63
2022-10-11T22:21:33.016Z,5.50
2022-10-11T22:24:01.534Z,6.03
2022-10-11T22:26:31.586Z,5.72
2022-10-11T22:29:00.827Z,5.10
2022-10-11T22:31:29.749Z,6.05
2022-10-11T22:34:00.051Z,6.00
2022-10-11T22:36:30.788Z,5.38
2022-10-11T22:38:59.459Z,5.78
2022-10-11T22:41:27.579Z,5.70
2022-10-11T22:43:55.629Z,5.80
2022-10-11T22:46:23.676Z,5.47
2022-10-11T22:48:51.793Z,5.93
2022-10-11T22:51:19.876Z,5.30
2022-10-11T22:53:48.307Z,4.97
2022-10-11T22:56:16.492Z,5.22
2022-10-11T22:58:44.586Z,5.23
2022-10-11T23:01:14.687Z,5.30
2022-10-11T23:03:43.178Z,6.22
2022-10-11T23:06:11.507Z,5.28
2022-10-11T23:08:39.625Z,5.32
2022-10-11T23:11:08.320Z,5.00
2022-10-11T23:13:36.638Z,4.97
2022-10-11T23:16:09.666Z,5.03
2022-10-11T23:18:38.918Z,5.75
2022-10-11T23:21:07.986Z,5.50
2022-10-11T23:23:36.462Z,5.23
2022-10-11T23:26:11.372Z,5.68
2022-10-11T23:28:40.415Z,6.43
2022-10-11T23:31:26.586Z,6.03
2022-10-11T23:33:55.566Z,6.68
2022-10-11T23:36:26.155Z,5.70
2022-10-11T23:38:59.413Z,6.15
2022-10-11T23:41:29.764Z,6.70
2022-10-11T23:43:59.458Z,6.95
2022-10-11T23:46:27.356Z,6.30
2022-10-11T23:48:55.746Z,6.00
2022-10-11T23:51:23.710Z,6.03
2022-10-11T23:53:51.935Z,6.25
2022-10-11T23:56:19.894Z,6.57
2022-10-11T23:58:48.209Z,5.88
